Time;durP1;ratioP1;P1;durP2;ratioP2;P2;SDS_P1;SDS_P2;PMS_P1;PMS_P2;Temp;Humidity;BMP_temperature;BMP_pressure;BME280_temperature;BME280_humidity;BME280_pressure;Samples;Min_cycle;Max_cycle;Signal;HPM_P1;HPM_P2
2022/06/30 00:02:22;;;;;;;3.28;1.45;;;;;;;22.70;60.05;98360.94;5096720;28;20047;-63
2022/06/30 00:05:07;;;;;;;2.20;1.33;;;;;;;22.79;59.49;98366.97;5081503;28;20475;-64
2022/06/30 00:07:52;;;;;;;2.13;1.30;;;;;;;22.79;58.70;98396.34;5097073;28;20081;-62
2022/06/30 00:10:36;;;;;;;2.25;1.35;;;;;;;22.74;60.66;98420.13;5100899;28;20032;-62
2022/06/30 00:13:21;;;;;;;4.53;1.52;;;;;;;22.48;62.72;98424.19;5069046;28;20054;-62
2022/06/30 00:16:06;;;;;;;2.90;1.60;;;;;;;22.71;61.98;98418.66;5096900;28;20471;-62
2022/06/30 00:18:51;;;;;;;4.53;1.60;;;;;;;22.55;63.40;98424.25;5112704;28;20027;-62
2022/06/30 00:21:36;;;;;;;4.78;1.50;;;;;;;22.56;63.65;98424.06;5111512;28;20043;-62
2022/06/30 00:24:21;;;;;;;2.55;1.50;;;;;;;22.49;64.62;98410.66;5116276;28;20383;-63
2022/06/30 00:27:06;;;;;;;2.75;1.40;;;;;;;22.62;64.39;98411.81;5081916;28;20504;-63
2022/06/30 00:29:51;;;;;;;3.47;1.55;;;;;;;22.46;65.35;98420.88;5086863;28;20044;-62
2022/06/30 00:32:35;;;;;;;4.13;1.63;;;;;;;22.24;66.34;98421.72;5108983;28;20096;-62
2022/06/30 00:35:21;;;;;;;2.53;1.40;;;;;;;22.28;66.41;98409.66;5098467;28;20039;-63
2022/06/30 00:38:06;;;;;;;3.60;1.40;;;;;;;22.21;66.98;98415.94;5114100;28;20052;-65
2022/06/30 00:40:52;;;;;;;1.55;1.30;;;;;;;22.36;64.56;98407.88;5112193;28;20081;-63
2022/06/30 00:43:47;;;;;;;2.55;1.40;;;;;;;22.25;65.13;98412.69;5097279;28;20043;-63
2022/06/30 00:46:32;;;;;;;3.17;1.13;;;;;;;22.00;64.49;98399.72;5100597;28;20478;-62
2022/06/30 00:49:17;;;;;;;3.97;1.40;;;;;;;22.21;64.76;98413.25;5111506;28;20036;-63
2022/06/30 00:52:04;;;;;;;3.00;1.40;;;;;;;22.16;64.55;98421.84;5097647;28;20386;-63
2022/06/30 00:54:52;;;;;;;1.75;1.13;;;;;;;22.09;64.13;98427.09;5103766;28;20038;-62
2022/06/30 00:57:41;;;;;;;6.32;1.40;;;;;;;22.03;64.26;98425.19;5115395;28;20044;-63
2022/06/30 01:00:29;;;;;;;3.85;1.30;;;;;;;22.17;63.84;98420.81;5112937;28;20531;-64
2022/06/30 01:03:14;;;;;;;1.30;1.10;;;;;;;22.14;64.07;98416.69;5096938;28;20039;-64
2022/06/30 01:06:00;;;;;;;3.55;1.38;;;;;;;22.03;65.37;98417.19;5102228;28;20047;-63
2022/06/30 01:08:46;;;;;;;1.98;1.13;;;;;;;21.88;65.53;98417.22;5111285;28;20039;-63
2022/06/30 01:14:33;;;;;;;2.38;1.40;;;;;;;21.56;69.41;98432.59;5104221;28;20031;-63
2022/06/30 01:17:18;;;;;;;2.53;1.50;;;;;;;21.61;68.17;98432.88;5088173;28;20035;-62
2022/06/30 01:20:03;;;;;;;3.28;1.52;;;;;;;21.86;68.03;98441.41;5085798;28;20044;-63
2022/06/30 01:22:49;;;;;;;1.58;1.15;;;;;;;22.44;66.30;98444.28;5105327;28;20123;-64
2022/06/30 01:25:34;;;;;;;3.90;1.42;;;;;;;22.07;67.39;98452.28;5100357;28;20474;-63
2022/06/30 01:28:19;;;;;;;4.97;1.45;;;;;;;22.05;66.51;98446.34;5099615;28;20035;-63
2022/06/30 01:31:04;;;;;;;4.10;1.60;;;;;;;21.61;69.06;98451.53;5099784;28;20040;-62
2022/06/30 01:33:50;;;;;;;2.78;1.27;;;;;;;21.84;68.68;98455.91;5100534;28;20054;-63
2022/06/30 01:36:36;;;;;;;3.50;1.30;;;;;;;21.42;69.83;98456.38;5102452;28;20036;-62
2022/06/30 01:39:21;;;;;;;2.33;1.50;;;;;;;21.25;71.85;98455.75;5114976;28;20115;-63
2022/06/30 01:42:08;;;;;;;3.17;1.40;;;;;;;20.99;73.25;98462.31;5106271;28;20113;-63
2022/06/30 01:44:53;;;;;;;3.05;1.25;;;;;;;20.90;74.43;98464.19;5115483;28;20043;-63
2022/06/30 01:47:38;;;;;;;1.60;1.23;;;;;;;21.13;73.70;98456.19;5099163;28;20042;-62
2022/06/30 01:50:26;;;;;;;2.33;1.40;;;;;;;20.78;75.52;98472.59;5100099;28;20077;-62
2022/06/30 01:53:11;;;;;;;3.63;1.15;;;;;;;20.56;77.34;98471.59;5114400;28;21051;-62
2022/06/30 01:55:55;;;;;;;2.65;1.20;;;;;;;21.36;74.01;98470.44;5114899;28;20441;-62
2022/06/30 01:58:41;;;;;;;1.85;1.20;;;;;;;21.58;73.21;98471.34;5099742;28;20394;-62
2022/06/30 02:01:26;;;;;;;3.65;1.42;;;;;;;21.92;71.08;98471.00;5085089;28;20111;-63
2022/06/30 02:07:15;;;;;;;2.88;1.30;;;;;;;20.97;75.93;98477.63;5086237;28;20046;-64
2022/06/30 02:10:00;;;;;;;1.77;0.93;;;;;;;21.46;73.83;98478.16;5111430;28;20039;-62
2022/06/30 02:12:46;;;;;;;3.20;1.13;;;;;;;21.76;72.50;98470.97;5099490;28;20035;-63
2022/06/30 02:15:36;;;;;;;2.70;1.23;;;;;;;22.10;71.30;98474.06;5085205;28;20484;-63
2022/06/30 02:18:20;;;;;;;4.30;1.10;;;;;;;21.46;73.49;98473.63;5114405;28;20031;-62
2022/06/30 02:21:05;;;;;;;5.45;1.20;;;;;;;21.44;73.64;98474.84;5102910;28;20038;-62
2022/06/30 02:23:51;;;;;;;2.25;1.20;;;;;;;21.16;75.50;98462.97;5106448;28;20386;-63
2022/06/30 02:26:37;;;;;;;3.90;1.08;;;;;;;21.17;74.73;98467.28;5093722;28;20048;-62
2022/06/30 02:29:22;;;;;;;1.85;1.25;;;;;;;21.12;76.06;98481.16;5112094;28;20413;-62
2022/06/30 02:32:07;;;;;;;4.68;1.30;;;;;;;21.28;74.32;98479.34;5085460;28;20040;-63
2022/06/30 02:34:54;;;;;;;7.18;1.30;;;;;;;21.19;75.45;98469.75;5101846;28;20379;-62
2022/06/30 02:37:39;;;;;;;2.10;1.00;;;;;;;21.73;73.25;98467.84;5114388;28;20039;-62
2022/06/30 02:40:24;;;;;;;2.50;1.05;;;;;;;21.28;74.79;98482.00;5071121;28;20052;-60
2022/06/30 02:43:09;;;;;;;1.88;1.00;;;;;;;21.10;76.55;98485.00;5114837;28;20044;-62
2022/06/30 02:45:53;;;;;;;1.95;0.90;;;;;;;21.24;76.20;98484.19;5079381;28;20051;-62
2022/06/30 02:48:38;;;;;;;2.65;1.17;;;;;;;21.18;75.61;98482.28;5116038;28;20035;-61
2022/06/30 02:51:23;;;;;;;1.92;0.95;;;;;;;21.00;77.20;98485.25;5083201;28;20036;-62
2022/06/30 02:54:09;;;;;;;2.35;1.23;;;;;;;20.78;78.73;98490.38;5084394;28;20111;-62
2022/06/30 02:56:53;;;;;;;5.40;1.23;;;;;;;21.26;76.09;98500.00;5083966;28;20039;-62
2022/06/30 02:59:38;;;;;;;2.80;1.10;;;;;;;20.62;78.93;98494.84;5098548;28;20046;-62
2022/06/30 03:02:23;;;;;;;1.55;1.05;;;;;;;21.47;75.72;98499.28;5100579;28;20132;-64
2022/06/30 03:05:09;;;;;;;5.60;1.10;;;;;;;20.53;79.77;98498.56;5095418;28;20093;-63
2022/06/30 03:07:54;;;;;;;4.18;1.42;;;;;;;20.51;80.83;98505.88;5110648;28;20149;-62
2022/06/30 03:10:38;;;;;;;2.50;0.90;;;;;;;20.43;81.36;98499.59;5096390;28;20035;-63
2022/06/30 03:13:23;;;;;;;1.83;1.00;;;;;;;20.62;80.98;98502.81;5083631;28;20756;-64
2022/06/30 03:16:08;;;;;;;3.58;1.10;;;;;;;20.69;80.70;98492.31;5097122;28;20047;-62
2022/06/30 03:18:53;;;;;;;2.40;1.30;;;;;;;20.03;83.89;98482.88;5113278;28;20055;-62
2022/06/30 03:21:39;;;;;;;3.15;1.15;;;;;;;20.37;83.06;98484.34;5097958;28;20505;-62
2022/06/30 03:24:23;;;;;;;4.68;1.25;;;;;;;20.13;83.64;98486.16;5108525;28;20032;-62
2022/06/30 03:27:08;;;;;;;2.47;1.00;;;;;;;19.81;85.89;98494.06;5082049;28;20032;-61
2022/06/30 03:29:52;;;;;;;2.28;1.20;;;;;;;19.70;87.45;98476.69;5080988;28;20040;-63
2022/06/30 03:32:38;;;;;;;1.98;1.25;;;;;;;19.75;87.66;98480.66;5100872;28;20035;-62
2022/06/30 03:35:24;;;;;;;2.40;1.27;;;;;;;19.73;87.82;98469.38;5097670;28;20043;-63
2022/06/30 03:38:09;;;;;;;2.53;1.08;;;;;;;20.01;85.97;98472.38;5045038;28;20032;-62
2022/06/30 03:40:55;;;;;;;2.38;1.27;;;;;;;20.18;85.30;98473.19;5084303;28;20035;-62
2022/06/30 03:43:39;;;;;;;2.47;1.00;;;;;;;20.03;85.40;98464.28;5082975;28;20033;-62
2022/06/30 03:46:24;;;;;;;2.22;1.50;;;;;;;19.93;85.92;98445.84;5112783;28;20047;-61
2022/06/30 03:49:09;;;;;;;3.63;1.20;;;;;;;19.88;85.95;98450.88;5096901;28;20065;-61
2022/06/30 03:51:55;;;;;;;2.45;1.20;;;;;;;20.34;83.62;98449.28;5113223;28;20487;-62
2022/06/30 03:54:40;;;;;;;5.57;1.20;;;;;;;20.32;83.18;98446.81;5084427;28;20062;-62
2022/06/30 03:57:25;;;;;;;2.28;1.35;;;;;;;20.22;83.76;98447.03;5112015;28;20038;-62
2022/06/30 04:00:11;;;;;;;3.20;1.30;;;;;;;19.91;85.15;98454.00;5112896;28;20047;-62
2022/06/30 04:02:55;;;;;;;4.32;1.50;;;;;;;20.26;84.32;98460.81;5082461;28;20127;-62
2022/06/30 04:05:41;;;;;;;3.65;1.00;;;;;;;20.51;82.65;98452.69;5110530;28;20494;-61
2022/06/30 04:08:26;;;;;;;2.33;1.30;;;;;;;20.47;82.19;98448.72;5085384;28;20096;-64
2022/06/30 04:11:11;;;;;;;3.72;1.38;;;;;;;20.40;81.88;98445.97;5096540;28;20043;-62
2022/06/30 04:13:56;;;;;;;2.28;1.42;;;;;;;20.67;80.45;98443.75;5103779;28;20043;-64
2022/06/30 04:16:41;;;;;;;2.75;1.35;;;;;;;20.64;80.13;98438.78;5112695;28;20036;-64
2022/06/30 04:19:28;;;;;;;3.08;1.58;;;;;;;20.70;79.66;98427.41;5113050;28;20048;-64
2022/06/30 04:22:12;;;;;;;3.45;1.65;;;;;;;20.89;79.37;98427.94;5083037;28;20055;-64
2022/06/30 04:24:57;;;;;;;3.95;1.35;;;;;;;21.02;78.14;98432.66;5105076;28;20525;-63
2022/06/30 04:27:50;;;;;;;2.33;1.33;;;;;;;21.19;76.59;98420.00;5105630;28;20481;-63
2022/06/30 04:33:38;;;;;;;3.60;1.40;;;;;;;21.42;75.25;98422.59;5100040;28;20035;-63
2022/06/30 04:36:23;;;;;;;2.55;1.52;;;;;;;21.40;74.40;98421.09;5105676;28;20039;-63
2022/06/30 04:39:08;;;;;;;2.88;1.67;;;;;;;21.52;73.59;98419.66;5085317;28;20035;-64
2022/06/30 04:41:52;;;;;;;2.20;1.30;;;;;;;21.53;73.59;98423.13;5083497;28;20083;-63
2022/06/30 04:44:38;;;;;;;3.22;2.00;;;;;;;21.94;72.37;98426.28;5109873;28;20121;-62
2022/06/30 04:47:24;;;;;;;5.20;1.90;;;;;;;22.17;71.46;98418.16;5082553;28;20040;-64
2022/06/30 04:50:11;;;;;;;3.53;2.60;;;;;;;22.26;71.59;98425.00;5112278;28;20047;-63
2022/06/30 04:52:55;;;;;;;5.55;3.20;;;;;;;22.69;70.33;98412.69;5106141;28;20043;-63
2022/06/30 04:55:41;;;;;;;4.88;3.63;;;;;;;22.92;69.68;98424.16;5099904;28;20036;-62
2022/06/30 04:58:27;;;;;;;4.93;3.45;;;;;;;23.07;69.91;98418.72;5071926;28;20690;-63
2022/06/30 05:01:12;;;;;;;6.93;4.05;;;;;;;23.01;70.44;98415.81;5109891;28;20044;-63
2022/06/30 05:03:57;;;;;;;6.03;3.50;;;;;;;23.24;69.34;98414.72;5097066;28;20039;-61
2022/06/30 05:06:42;;;;;;;7.25;3.40;;;;;;;23.37;68.57;98418.50;5084594;28;20042;-64
2022/06/30 05:09:29;;;;;;;4.65;3.35;;;;;;;23.39;68.00;98408.44;5111318;28;20064;-63
2022/06/30 05:12:15;;;;;;;7.00;3.20;;;;;;;23.50;67.99;98407.88;5111773;28;20390;-64
2022/06/30 05:14:59;;;;;;;8.57;4.00;;;;;;;23.55;67.23;98414.50;5111119;28;20035;-63
2022/06/30 05:17:44;;;;;;;7.72;3.67;;;;;;;23.98;65.93;98416.91;5109970;28;20039;-64
2022/06/30 05:20:30;;;;;;;5.80;2.97;;;;;;;24.29;63.37;98412.06;5111762;28;20036;-67
2022/06/30 05:23:16;;;;;;;3.67;2.88;;;;;;;24.39;62.69;98400.97;5082153;28;20482;-62
2022/06/30 05:29:04;;;;;;;4.55;2.83;;;;;;;24.83;61.16;98409.41;5097914;28;20047;-62
2022/06/30 05:31:50;;;;;;;6.88;3.13;;;;;;;25.00;60.92;98409.03;5096217;28;20481;-63
2022/06/30 05:34:36;;;;;;;9.50;2.92;;;;;;;25.19;60.27;98398.44;5103885;28;20047;-68
2022/06/30 05:37:21;;;;;;;5.43;2.42;;;;;;;25.12;60.79;98398.47;5111517;28;20038;-62
2022/06/30 05:40:07;;;;;;;4.00;2.47;;;;;;;25.26;60.35;98401.13;5111090;28;20043;-60
2022/06/30 05:42:54;;;;;;;6.68;2.05;;;;;;;25.30;60.23;98396.97;5084616;28;20044;-61
2022/06/30 05:45:41;;;;;;;5.30;2.63;;;;;;;25.43;59.46;98399.63;5110895;28;20486;-62
2022/06/30 05:48:26;;;;;;;4.43;2.33;;;;;;;25.22;59.70;98406.06;5111746;28;20720;-62
2022/06/30 05:51:11;;;;;;;2.55;1.80;;;;;;;25.22;60.10;98406.91;5091935;28;20044;-61
2022/06/30 05:53:56;;;;;;;7.55;2.28;;;;;;;25.51;59.25;98413.84;5095734;28;20425;-63
2022/06/30 05:56:41;;;;;;;4.00;2.00;;;;;;;25.61;58.96;98414.19;5111104;28;20036;-61
2022/06/30 05:59:26;;;;;;;5.50;2.22;;;;;;;25.63;58.69;98422.06;5112369;28;20492;-64
2022/06/30 06:02:11;;;;;;;4.45;2.38;;;;;;;25.96;58.78;98429.13;5087846;28;20027;-62
2022/06/30 06:04:56;;;;;;;4.60;2.50;;;;;;;26.54;57.23;98430.03;5081501;28;20039;-64
2022/06/30 06:07:42;;;;;;;4.15;2.08;;;;;;;27.41;54.42;98427.63;5115869;28;20105;-64
2022/06/30 06:10:26;;;;;;;3.55;2.17;;;;;;;27.41;53.78;98427.63;5100237;28;20108;-62
2022/06/30 06:13:14;;;;;;;2.90;2.08;;;;;;;27.61;55.31;98431.09;5099320;28;20074;-64
2022/06/30 06:16:01;;;;;;;3.13;1.65;;;;;;;27.29;56.93;98450.88;5098869;28;20470;-62
2022/06/30 06:18:46;;;;;;;8.13;2.53;;;;;;;27.15;57.45;98450.22;5091140;28;20039;-64
2022/06/30 06:21:34;;;;;;;3.20;2.47;;;;;;;26.54;57.37;98448.00;5114101;28;20051;-64
2022/06/30 06:24:19;;;;;;;3.42;2.38;;;;;;;26.63;58.50;98452.09;5097496;28;20043;-64
2022/06/30 06:27:04;;;;;;;4.05;1.88;;;;;;;27.12;57.35;98446.13;5109759;28;20051;-61
2022/06/30 06:29:49;;;;;;;3.63;1.90;;;;;;;26.54;56.09;98446.16;5088658;28;20134;-62
2022/06/30 06:32:35;;;;;;;5.35;2.53;;;;;;;27.00;59.89;98443.28;5114686;28;20421;-62
2022/06/30 06:35:21;;;;;;;3.50;2.05;;;;;;;26.57;60.41;98458.34;5113965;28;20036;-63
2022/06/30 06:38:06;;;;;;;3.17;1.95;;;;;;;25.76;64.07;98454.19;5093966;28;20264;-62
2022/06/30 06:40:51;;;;;;;5.93;4.07;;;;;;;26.05;68.34;98465.41;5113427;28;20498;-63
2022/06/30 06:43:36;;;;;;;4.80;2.20;;;;;;;26.99;61.07;98460.47;5095128;28;20047;-62
2022/06/30 06:46:26;;;;;;;4.40;1.70;;;;;;;26.50;62.38;98457.53;5112884;28;20371;-65
2022/06/30 06:49:11;;;;;;;5.50;2.35;;;;;;;25.35;66.20;98464.19;5096034;28;20092;-58
2022/06/30 06:51:57;;;;;;;4.32;2.10;;;;;;;24.61;70.01;98468.50;5070152;28;20254;-59
2022/06/30 06:54:42;;;;;;;2.53;1.80;;;;;;;25.05;68.86;98472.69;5096861;28;20363;-58
2022/06/30 06:57:34;;;;;;;2.90;2.00;;;;;;;25.65;65.95;98471.78;5112121;28;20073;-60
2022/06/30 07:00:20;;;;;;;5.57;2.17;;;;;;;26.38;64.04;98465.47;5088141;28;20093;-66
2022/06/30 07:03:05;;;;;;;4.22;2.03;;;;;;;26.27;64.69;98464.25;5111791;28;20036;-68
2022/06/30 07:05:50;;;;;;;3.70;1.90;;;;;;;27.37;61.33;98464.03;5113859;28;20043;-65
2022/06/30 07:08:35;;;;;;;3.20;1.85;;;;;;;26.29;65.50;98467.56;5111440;28;20046;-65
2022/06/30 07:11:20;;;;;;;5.32;2.30;;;;;;;27.01;65.18;98460.28;5112867;28;20055;-61
2022/06/30 07:14:04;;;;;;;3.33;1.70;;;;;;;26.92;62.03;98463.22;5097774;28;20039;-59
2022/06/30 07:16:49;;;;;;;8.88;4.22;;;;;;;26.42;65.08;98464.00;5107006;28;20040;-58
2022/06/30 07:19:34;;;;;;;12.15;7.65;;;;;;;26.17;66.19;98460.19;5113190;28;20042;-68
2022/06/30 07:22:19;;;;;;;7.90;4.07;;;;;;;26.72;62.03;98452.63;5091249;28;20048;-70
2022/06/30 07:25:05;;;;;;;8.30;4.88;;;;;;;26.23;63.23;98466.53;5092502;28;20124;-71
2022/06/30 07:27:49;;;;;;;8.27;5.55;;;;;;;25.90;64.82;98459.50;5091125;28;20379;-73
2022/06/30 07:30:35;;;;;;;7.70;4.53;;;;;;;27.34;60.87;98467.19;5078791;28;20032;-67
2022/06/30 07:33:20;;;;;;;10.48;5.05;;;;;;;27.96;58.36;98465.47;5092253;28;20040;-73
2022/06/30 07:36:06;;;;;;;7.05;3.13;;;;;;;28.59;56.27;98456.34;5058843;28;20059;-70
2022/06/30 07:38:52;;;;;;;8.65;5.20;;;;;;;28.07;58.40;98453.13;5071894;28;20036;-70
2022/06/30 07:41:38;;;;;;;5.60;3.60;;;;;;;28.92;54.88;98457.69;5082266;28;20078;-73
2022/06/30 07:44:23;;;;;;;3.58;2.53;;;;;;;28.89;55.22;98464.34;5077039;28;20035;-71
2022/06/30 07:47:08;;;;;;;5.97;3.78;;;;;;;29.05;55.06;98467.44;5092992;28;20040;-71
2022/06/30 07:49:53;;;;;;;5.03;3.10;;;;;;;29.48;53.86;98461.88;5044282;28;20380;-70
2022/06/30 07:52:38;;;;;;;5.20;2.95;;;;;;;29.59;52.91;98452.97;5082238;28;20137;-77
2022/06/30 07:55:23;;;;;;;9.90;3.50;;;;;;;29.18;55.61;98460.16;5103735;28;20047;-73
2022/06/30 07:58:08;;;;;;;4.72;2.90;;;;;;;29.07;54.08;98446.44;5089310;28;20040;-71
2022/06/30 08:00:53;;;;;;;8.27;2.80;;;;;;;28.89;54.53;98458.13;5092325;28;20115;-70
2022/06/30 08:03:39;;;;;;;6.30;2.40;;;;;;;29.42;53.45;98442.06;5078148;28;20113;-72
2022/06/30 08:06:24;;;;;;;3.53;2.63;;;;;;;29.21;53.60;98452.44;5091616;28;20112;-69
2022/06/30 08:09:10;;;;;;;5.07;3.00;;;;;;;29.94;51.44;98440.44;5089893;28;20398;-69
2022/06/30 08:11:55;;;;;;;6.82;2.95;;;;;;;30.27;50.98;98442.66;5093610;28;20036;-71
2022/06/30 08:14:40;;;;;;;4.68;2.33;;;;;;;30.76;50.03;98435.88;5103572;28;20106;-71
2022/06/30 08:17:25;;;;;;;3.53;2.65;;;;;;;30.64;49.54;98441.38;5101696;28;20047;-73
2022/06/30 08:20:10;;;;;;;7.22;3.05;;;;;;;30.64;49.68;98435.97;5112525;28;20036;-70
2022/06/30 08:22:55;;;;;;;4.40;2.50;;;;;;;30.33;50.62;98441.66;5091665;28;20063;-75
2022/06/30 08:25:40;;;;;;;7.93;3.03;;;;;;;30.93;50.04;98435.91;5060324;28;20044;-73
2022/06/30 08:28:27;;;;;;;3.72;2.67;;;;;;;31.55;47.97;98433.25;5088547;28;20058;-70
2022/06/30 08:31:12;;;;;;;7.05;3.10;;;;;;;29.94;50.85;98431.50;5092363;28;20487;-69
2022/06/30 08:33:57;;;;;;;6.82;2.95;;;;;;;30.23;50.48;98434.22;5077224;28;20485;-70
2022/06/30 08:36:42;;;;;;;3.60;2.83;;;;;;;31.09;48.99;98432.34;5056358;28;20033;-70
2022/06/30 08:42:32;;;;;;;5.25;3.03;;;;;;;30.37;50.42;98430.13;5047455;28;20067;-70
2022/06/30 08:45:17;;;;;;;5.28;2.90;;;;;;;31.05;49.41;98427.69;5076363;28;20049;-69
2022/06/30 08:48:03;;;;;;;6.47;3.13;;;;;;;31.54;49.87;98423.47;5080895;28;20055;-70
2022/06/30 08:50:56;;;;;;;3.60;3.13;;;;;;;31.90;46.65;98420.34;5048310;28;20064;-70
2022/06/30 08:53:52;;;;;;;6.13;3.10;;;;;;;32.60;45.28;98421.56;5076931;28;20063;-70
2022/06/30 08:56:37;;;;;;;3.90;2.80;;;;;;;33.20;44.02;98424.13;5081480;28;20040;-69
2022/06/30 08:59:24;;;;;;;6.68;3.50;;;;;;;33.32;43.52;98423.94;5044500;28;20036;-69
2022/06/30 09:02:09;;;;;;;5.38;3.30;;;;;;;32.89;44.75;98424.75;5069056;28;20069;-68
2022/06/30 09:04:54;;;;;;;7.07;3.90;;;;;;;33.93;42.48;98421.72;5091454;28;20035;-70
2022/06/30 09:07:39;;;;;;;5.30;2.85;;;;;;;33.39;42.97;98415.56;5091649;28;20449;-70
2022/06/30 09:10:25;;;;;;;5.95;3.28;;;;;;;32.24;45.85;98411.22;5076336;28;20402;-70
2022/06/30 09:13:10;;;;;;;5.15;3.20;;;;;;;33.45;43.11;98411.78;5091776;28;20535;-69
2022/06/30 09:15:58;;;;;;;116.57;18.17;;;;;;;33.02;43.58;98409.91;5041966;28;20041;-69
2022/06/30 09:18:43;;;;;;;15.35;4.65;;;;;;;33.63;42.07;98413.22;5065095;28;20047;-69
2022/06/30 09:21:28;;;;;;;5.13;3.38;;;;;;;33.37;42.21;98417.72;5094180;28;20047;-69
2022/06/30 09:24:22;;;;;;;6.93;3.22;;;;;;;33.74;42.35;98415.97;5096337;28;20039;-69
2022/06/30 09:27:19;;;;;;;8.65;3.20;;;;;;;35.16;40.97;98410.25;5096069;28;20067;-69
2022/06/30 09:30:09;;;;;;;7.03;3.30;;;;;;;33.52;42.06;98411.53;5079068;28;20538;-69
2022/06/30 09:32:57;;;;;;;5.57;3.10;;;;;;;33.66;41.85;98404.56;5103433;28;20035;-69
2022/06/30 09:35:42;;;;;;;4.80;2.83;;;;;;;34.60;42.61;98395.69;5086125;28;20165;-69
2022/06/30 09:38:29;;;;;;;9.38;2.95;;;;;;;34.15;42.06;98398.91;5085723;28;20043;-69
2022/06/30 09:41:26;;;;;;;4.57;3.00;;;;;;;34.59;42.29;98403.03;5099582;28;20111;-69
2022/06/30 09:44:24;;;;;;;6.30;2.80;;;;;;;34.98;41.71;98398.91;5114730;28;20446;-69
2022/06/30 09:47:10;;;;;;;8.75;3.72;;;;;;;33.47;43.19;98396.06;5114913;28;20107;-69
2022/06/30 09:50:02;;;;;;;6.05;3.03;;;;;;;33.13;44.57;98397.25;5115478;28;20367;-69
2022/06/30 09:53:08;;;;;;;4.32;3.08;;;;;;;32.93;43.61;98395.22;5099726;28;20035;-69
2022/06/30 09:55:54;;;;;;;4.18;3.30;;;;;;;32.64;44.60;98395.59;5100257;28;20457;-69
2022/06/30 09:58:42;;;;;;;5.68;3.13;;;;;;;33.12;43.68;98392.91;5114911;28;20047;-70
2022/06/30 10:01:27;;;;;;;7.00;3.28;;;;;;;33.97;39.25;98378.53;5116095;28;20430;-69
2022/06/30 10:04:16;;;;;;;3.90;2.80;;;;;;;34.07;41.67;98380.44;5085811;28;20040;-68
2022/06/30 10:07:02;;;;;;;4.53;2.92;;;;;;;34.58;39.41;98385.09;5115142;28;20051;-68
2022/06/30 10:09:49;;;;;;;6.05;2.85;;;;;;;35.41;37.96;98386.81;5115322;28;20388;-67
2022/06/30 10:12:34;;;;;;;6.22;3.05;;;;;;;36.76;35.40;98381.53;5114818;28;20044;-68
2022/06/30 10:15:21;;;;;;;7.10;3.20;;;;;;;35.63;37.16;98377.44;5100019;28;20035;-67
2022/06/30 10:18:09;;;;;;;7.45;3.05;;;;;;;36.38;35.91;98376.69;5114205;28;20036;-67
2022/06/30 10:20:54;;;;;;;4.90;2.90;;;;;;;36.97;35.73;98374.72;5115075;28;20035;-67
2022/06/30 10:23:39;;;;;;;4.72;3.10;;;;;;;36.98;34.52;98364.63;5084396;28;20036;-69
2022/06/30 10:29:28;;;;;;;4.93;2.50;;;;;;;37.31;28.05;98367.50;5106867;28;20040;-69
2022/06/30 10:32:35;;;;;;;4.57;3.00;;;;;;;37.87;26.37;98347.13;5118690;28;20035;-68
2022/06/30 10:35:26;;;;;;;7.75;2.88;;;;;;;36.60;28.79;98354.38;5111707;28;20501;-69
2022/06/30 10:38:20;;;;;;;4.80;2.92;;;;;;;37.22;28.77;98353.72;5091317;28;20074;-69
2022/06/30 10:41:12;;;;;;;4.78;3.00;;;;;;;36.83;26.61;98352.81;5102152;28;20058;-68
2022/06/30 10:44:04;;;;;;;4.68;2.90;;;;;;;38.08;27.64;98339.38;5113823;28;20497;-68
2022/06/30 10:46:49;;;;;;;5.65;3.42;;;;;;;37.45;31.73;98347.69;5113875;28;20183;-68
2022/06/30 10:49:35;;;;;;;5.25;2.75;;;;;;;38.21;33.97;98332.34;5101901;28;20123;-68
2022/06/30 10:52:21;;;;;;;5.43;3.08;;;;;;;37.71;32.99;98339.13;5114014;28;20031;-69
2022/06/30 10:55:06;;;;;;;6.85;2.97;;;;;;;37.25;34.20;98335.94;5114908;28;20039;-72
2022/06/30 10:58:04;;;;;;;3.75;2.58;;;;;;;36.87;30.39;98336.69;5098489;28;20031;-74
2022/06/30 11:01:03;;;;;;;4.78;2.50;;;;;;;38.08;29.65;98323.81;5113667;28;20036;-72
2022/06/30 11:03:51;;;;;;;5.75;2.33;;;;;;;38.60;29.45;98324.81;5114670;28;20039;-74
2022/06/30 11:06:58;;;;;;;3.70;2.15;;;;;;;39.20;21.54;98327.78;5086582;28;20044;-72
2022/06/30 11:09:49;;;;;;;3.83;2.25;;;;;;;36.93;24.96;98331.97;5098343;28;20042;-73
2022/06/30 11:12:38;;;;;;;2.78;2.10;;;;;;;38.12;23.16;98329.47;5114678;28;20040;-76
2022/06/30 11:15:51;;;;;;;2.25;1.90;;;;;;;39.08;21.83;98332.94;5105026;28;20039;-72
2022/06/30 11:18:35;;;;;;;1.80;1.60;;;;;;;38.28;21.51;98326.50;5086939;28;20044;-65
2022/06/30 11:21:21;;;;;;;6.10;1.80;;;;;;;38.05;24.08;98324.41;5092173;28;20063;-65
2022/06/30 11:24:07;;;;;;;2.90;1.48;;;;;;;36.41;22.50;98318.84;5104539;28;20089;-64
2022/06/30 11:29:58;;;;;;;3.30;1.70;;;;;;;38.23;22.92;98310.19;5100117;28;20055;-66
2022/06/30 11:32:43;;;;;;;3.60;1.90;;;;;;;37.91;22.79;98309.91;5083376;28;20046;-64
2022/06/30 11:35:34;;;;;;;3.75;1.42;;;;;;;39.10;21.14;98311.53;5098491;28;20040;-65
2022/06/30 11:38:26;;;;;;;1.60;1.20;;;;;;;39.42;20.91;98316.06;5113587;28;20062;-67
2022/06/30 11:44:16;;;;;;;3.03;2.03;;;;;;;39.15;25.43;98309.56;5097585;28;20339;-65
2022/06/30 11:47:05;;;;;;;4.07;1.65;;;;;;;36.93;23.56;98318.31;5112868;28;20035;-65
2022/06/30 11:49:52;;;;;;;2.63;1.50;;;;;;;37.41;22.88;98314.69;5069267;28;20040;-66
2022/06/30 11:52:37;;;;;;;1.40;1.30;;;;;;;37.40;25.23;98312.25;5115501;28;20074;-67
2022/06/30 11:55:27;;;;;;;4.57;1.40;;;;;;;38.38;21.96;98299.00;5100435;28;20116;-65
2022/06/30 11:58:12;;;;;;;2.78;1.73;;;;;;;37.68;25.29;98294.13;5085674;28;20036;-72
2022/06/30 12:00:57;;;;;;;2.05;1.70;;;;;;;37.09;24.03;98311.56;5125530;28;20370;-70
2022/06/30 12:03:43;;;;;;;2.78;1.67;;;;;;;38.31;24.61;98295.81;5114016;28;20040;-73
2022/06/30 12:06:28;;;;;;;2.33;1.70;;;;;;;39.53;23.19;98296.66;5083214;28;20066;-81
2022/06/30 12:09:13;;;;;;;2.03;1.73;;;;;;;39.88;20.82;98283.22;5112388;28;20040;-76
2022/06/30 12:11:59;;;;;;;3.92;1.60;;;;;;;38.86;22.39;98294.28;5098694;28;20039;-72
2022/06/30 12:14:46;;;;;;;3.22;1.40;;;;;;;37.59;22.69;98302.16;5098444;28;20035;-71
2022/06/30 12:17:36;;;;;;;2.55;1.67;;;;;;;38.26;20.91;98302.19;5077182;28;20047;-69
2022/06/30 12:20:22;;;;;;;2.55;1.50;;;;;;;37.44;22.35;98292.25;5077209;28;20450;-69
2022/06/30 12:23:07;;;;;;;3.38;1.55;;;;;;;37.20;22.97;98300.50;5093451;28;20052;-71
2022/06/30 12:25:53;;;;;;;3.58;1.52;;;;;;;37.41;23.36;98295.59;5112687;28;20048;-70
2022/06/30 12:28:52;;;;;;;6.68;1.58;;;;;;;36.18;22.82;98310.31;5097870;28;20490;-71
2022/06/30 12:31:37;;;;;;;2.75;1.40;;;;;;;36.41;22.73;98294.34;5116030;28;20036;-68
2022/06/30 12:34:24;;;;;;;1.52;1.27;;;;;;;36.14;23.26;98298.38;5101539;28;20039;-68
2022/06/30 12:37:11;;;;;;;1.70;1.20;;;;;;;36.50;21.89;98295.31;5068909;28;20502;-68
2022/06/30 12:40:11;;;;;;;4.22;1.50;;;;;;;37.42;22.58;98288.22;5096919;28;20046;-69
2022/06/30 12:42:58;;;;;;;4.88;1.70;;;;;;;38.01;22.14;98285.13;5084892;28;20031;-70
2022/06/30 12:45:43;;;;;;;3.10;1.70;;;;;;;37.79;22.18;98286.59;5111954;28;20386;-69
2022/06/30 12:48:48;;;;;;;3.25;1.45;;;;;;;36.00;23.62;98297.13;5111844;28;20035;-70
2022/06/30 12:51:32;;;;;;;2.38;1.70;;;;;;;35.95;23.89;98286.28;5101466;28;20115;-70
2022/06/30 12:54:23;;;;;;;4.97;1.65;;;;;;;37.14;22.29;98277.94;5096163;28;20474;-70
2022/06/30 12:57:08;;;;;;;3.65;1.58;;;;;;;36.48;22.58;98278.44;5082623;28;20043;-70
2022/06/30 12:59:55;;;;;;;2.45;1.60;;;;;;;37.13;21.79;98279.06;5099258;28;20035;-71
2022/06/30 13:02:40;;;;;;;2.45;1.35;;;;;;;37.15;21.57;98273.31;5111909;28;20040;-70
2022/06/30 13:05:27;;;;;;;3.95;1.75;;;;;;;36.34;22.41;98275.59;5096214;28;20317;-70
2022/06/30 13:08:11;;;;;;;3.13;1.58;;;;;;;36.77;22.72;98269.41;5104427;28;20471;-70
2022/06/30 13:11:05;;;;;;;2.95;1.83;;;;;;;36.24;22.69;98274.59;5095046;28;20066;-71
2022/06/30 13:13:50;;;;;;;1.70;1.30;;;;;;;37.27;21.22;98265.50;5106269;28;20024;-70
2022/06/30 13:16:35;;;;;;;5.30;1.35;;;;;;;36.52;21.82;98273.22;5115523;28;20051;-71
2022/06/30 13:19:20;;;;;;;2.40;1.58;;;;;;;36.53;21.50;98263.94;5100701;28;20085;-69
2022/06/30 13:22:06;;;;;;;2.13;1.15;;;;;;;38.29;19.92;98251.59;5103663;28;20044;-69
2022/06/30 13:24:51;;;;;;;2.67;1.50;;;;;;;38.06;20.86;98252.25;5115303;28;20036;-70
2022/06/30 13:27:35;;;;;;;2.65;1.35;;;;;;;37.25;21.76;98248.59;5079904;28;20040;-72
2022/06/30 13:30:20;;;;;;;2.30;1.30;;;;;;;37.23;21.39;98250.81;5113941;28;20386;-68